Time;durP1;ratioP1;P1;durP2;ratioP2;P2;SDS_P1;SDS_P2;PMS_P1;PMS_P2;Temp;Humidity;BMP_temperature;BMP_pressure;BME280_temperature;BME280_humidity;BME280_pressure;Samples;Min_cycle;Max_cycle;Signal;HPM_P1;HPM_P2
2023/01/19 00:01:23;;;;;;;8.40;4.35;;;1.80;99.90;;;;;;5096510;28;20472;-70
2023/01/19 00:03:49;;;;;;;6.20;3.83;;;1.80;99.90;;;;;;5093626;28;20378;-69
2023/01/19 00:06:15;;;;;;;6.03;3.47;;;1.80;99.90;;;;;;5091537;28;20405;-69
2023/01/19 00:08:43;;;;;;;8.27;4.38;;;1.80;99.90;;;;;;5095239;28;20028;-70
2023/01/19 00:11:09;;;;;;;9.43;5.03;;;1.80;99.90;;;;;;5094695;28;20062;-69
2023/01/19 00:13:35;;;;;;;8.18;4.75;;;1.80;99.90;;;;;;5085387;28;20084;-70
2023/01/19 00:16:01;;;;;;;8.20;5.00;;;1.90;99.90;;;;;;5094091;28;20510;-69
2023/01/19 00:18:27;;;;;;;10.60;5.80;;;2.00;99.90;;;;;;5105075;27;20031;-71
2023/01/19 00:20:53;;;;;;;9.15;5.35;;;2.10;99.90;;;;;;5092596;28;20032;-69
2023/01/19 00:23:19;;;;;;;11.23;5.93;;;2.20;99.90;;;;;;5107048;28;20019;-69
2023/01/19 00:25:46;;;;;;;7.18;4.72;;;2.20;99.90;;;;;;5096734;28;20085;-70
2023/01/19 00:28:14;;;;;;;10.07;5.32;;;2.20;99.90;;;;;;5093513;28;20382;-70
2023/01/19 00:30:41;;;;;;;8.88;5.22;;;2.20;99.90;;;;;;5100658;28;20518;-69
2023/01/19 00:33:08;;;;;;;8.38;5.10;;;2.30;99.90;;;;;;5096944;28;20039;-70
2023/01/19 00:35:35;;;;;;;9.38;5.25;;;2.00;99.90;;;;;;5096405;28;20048;-69
2023/01/19 00:38:01;;;;;;;9.65;5.15;;;2.00;99.90;;;;;;5100778;27;20059;-69
2023/01/19 00:40:27;;;;;;;7.53;4.30;;;2.10;99.90;;;;;;5098843;28;20119;-69
2023/01/19 00:42:53;;;;;;;8.20;4.85;;;2.10;99.90;;;;;;5104053;28;20119;-70
2023/01/19 00:45:21;;;;;;;8.98;4.78;;;2.20;99.90;;;;;;5091995;28;20020;-69
2023/01/19 00:47:49;;;;;;;9.57;5.00;;;2.10;99.90;;;;;;5098681;28;20105;-69
2023/01/19 00:50:16;;;;;;;13.68;5.40;;;2.20;99.90;;;;;;5106943;28;20110;-69
2023/01/19 00:52:43;;;;;;;8.52;5.22;;;2.20;99.90;;;;;;5100243;28;20392;-69
2023/01/19 00:55:11;;;;;;;11.75;4.88;;;2.10;99.90;;;;;;5099955;27;20493;-69
2023/01/19 00:57:39;;;;;;;8.25;4.50;;;2.20;99.90;;;;;;5103973;28;20032;-70
2023/01/19 01:00:10;;;;;;;7.88;3.92;;;2.20;99.90;;;;;;5105694;28;20048;-70
2023/01/19 01:02:36;;;;;;;8.85;5.03;;;2.10;99.90;;;;;;5100247;28;20024;-69
2023/01/19 01:05:04;;;;;;;10.43;5.53;;;2.00;99.90;;;;;;5100561;28;20120;-69
2023/01/19 01:07:33;;;;;;;8.45;4.75;;;2.10;99.90;;;;;;5105369;27;20020;-69
2023/01/19 01:10:00;;;;;;;8.68;4.95;;;2.10;99.90;;;;;;5094401;28;20104;-69
2023/01/19 01:12:26;;;;;;;8.65;4.72;;;2.10;99.90;;;;;;5101322;28;20024;-69
2023/01/19 01:14:52;;;;;;;10.45;6.05;;;2.10;99.90;;;;;;5103264;28;20029;-69
2023/01/19 01:17:23;;;;;;;8.25;5.40;;;2.10;99.90;;;;;;5094503;28;20094;-69
2023/01/19 01:19:50;;;;;;;10.77;4.90;;;2.30;99.90;;;;;;5101784;28;20397;-69
2023/01/19 01:22:15;;;;;;;8.13;4.45;;;2.40;99.90;;;;;;5096249;27;20024;-69
2023/01/19 01:24:41;;;;;;;10.45;4.97;;;2.30;99.90;;;;;;5098757;28;20365;-69
2023/01/19 01:27:07;;;;;;;8.88;5.25;;;2.40;99.90;;;;;;5091232;28;20462;-69
2023/01/19 01:29:34;;;;;;;8.55;5.28;;;2.40;99.90;;;;;;5102658;28;20787;-69
2023/01/19 01:32:00;;;;;;;11.15;5.63;;;2.30;99.90;;;;;;5098915;27;20077;-69
2023/01/19 01:34:26;;;;;;;8.80;5.05;;;2.30;99.90;;;;;;5097935;28;20069;-69
2023/01/19 01:36:53;;;;;;;10.13;4.88;;;2.30;99.90;;;;;;5098562;28;20401;-70
2023/01/19 01:39:20;;;;;;;10.10;5.63;;;2.30;99.90;;;;;;5097715;28;20035;-69
2023/01/19 01:41:46;;;;;;;8.32;4.70;;;2.40;99.90;;;;;;5099836;27;20035;-69
2023/01/19 01:44:48;;;;;;;9.15;5.40;;;2.30;99.90;;;;;;5092243;28;20028;-69
2023/01/19 01:47:40;;;;;;;8.43;4.95;;;2.40;99.90;;;;;;5096514;28;20031;-69
2023/01/19 01:50:24;;;;;;;7.32;4.75;;;2.40;99.90;;;;;;5092826;28;20043;-69
2023/01/19 01:52:51;;;;;;;7.67;4.43;;;2.40;99.90;;;;;;5099140;28;20114;-70
2023/01/19 01:55:19;;;;;;;8.68;4.78;;;2.40;99.90;;;;;;5095838;28;20331;-69
2023/01/19 01:57:52;;;;;;;8.60;4.50;;;2.40;99.90;;;;;;5102446;28;20031;-69
2023/01/19 02:00:18;;;;;;;6.97;4.05;;;2.50;99.90;;;;;;5095300;28;20031;-69
2023/01/19 02:02:50;;;;;;;9.27;4.57;;;2.50;99.90;;;;;;5108874;28;20110;-70
2023/01/19 02:05:25;;;;;;;10.43;4.45;;;2.40;99.90;;;;;;5105718;28;20579;-69
2023/01/19 02:13:54;;;;;;;;;;;2.40;99.90;;;;;;5097746;27;20043;-69
2023/01/19 02:16:20;;;;;;;6.25;3.70;;;2.40;99.90;;;;;;5104730;28;19907;-69
2023/01/19 02:18:45;;;;;;;8.13;3.95;;;2.40;99.90;;;;;;5102234;28;20024;-69
2023/01/19 02:21:30;;;;;;;6.05;2.88;;;2.40;99.90;;;;;;5103265;28;20043;-69
2023/01/19 02:23:59;;;;;;;7.00;3.53;;;2.40;99.90;;;;;;5096958;28;20027;-70
2023/01/19 02:26:44;;;;;;;5.82;3.17;;;2.50;99.90;;;;;;5094155;28;20021;-70
2023/01/19 02:29:20;;;;;;;;;;;2.60;99.90;;;;;;5092363;28;20389;-70
2023/01/19 02:31:46;;;;;;;7.70;3.38;;;2.50;99.90;;;;;;5090855;28;19908;-70
2023/01/19 02:34:15;;;;;;;6.40;2.80;;;2.60;99.90;;;;;;5107343;28;20047;-69
2023/01/19 02:36:53;;;;;;;5.63;2.97;;;2.50;99.90;;;;;;5104694;28;20420;-69
2023/01/19 02:39:30;;;;;;;5.20;2.63;;;2.50;99.90;;;;;;5093403;27;20028;-69
2023/01/19 02:42:01;;;;;;;5.07;2.97;;;2.50;99.90;;;;;;5095775;28;20069;-69
2023/01/19 02:44:29;;;;;;;6.13;3.13;;;2.60;99.90;;;;;;5091265;28;20028;-69
2023/01/19 02:46:55;;;;;;;4.93;2.60;;;2.50;99.90;;;;;;5095937;28;20132;-69
2023/01/19 02:49:21;;;;;;;4.88;2.63;;;2.70;99.90;;;;;;5101087;28;20529;-69
2023/01/19 02:51:47;;;;;;;5.25;2.58;;;2.60;99.90;;;;;;5098390;28;20085;-69
2023/01/19 02:54:35;;;;;;;4.45;2.20;;;2.60;99.90;;;;;;5091571;28;20032;-69
2023/01/19 02:57:38;;;;;;;4.10;2.38;;;2.80;99.90;;;;;;5100605;28;20035;-70
2023/01/19 03:00:33;;;;;;;4.43;2.15;;;2.80;99.90;;;;;;5103324;28;20108;-69
2023/01/19 03:03:11;;;;;;;5.38;2.70;;;2.80;99.90;;;;;;5082086;28;20457;-69
2023/01/19 03:05:42;;;;;;;4.85;2.60;;;2.60;99.90;;;;;;5096419;28;20440;-69
2023/01/19 03:08:41;;;;;;;5.28;2.67;;;2.70;99.90;;;;;;5097771;28;20085;-69
2023/01/19 03:11:12;;;;;;;4.57;2.22;;;2.60;99.90;;;;;;5098806;28;20109;-69
2023/01/19 03:13:55;;;;;;;4.40;2.10;;;2.80;99.90;;;;;;5088326;28;20028;-69
2023/01/19 03:16:37;;;;;;;4.70;2.55;;;2.90;99.90;;;;;;5096634;28;20034;-69
2023/01/19 03:19:20;;;;;;;5.90;2.80;;;2.90;99.90;;;;;;5097617;28;20107;-69
2023/01/19 03:21:51;;;;;;;5.45;2.38;;;3.00;99.90;;;;;;5098529;28;20047;-70
2023/01/19 03:24:20;;;;;;;6.20;2.80;;;2.90;99.90;;;;;;5090610;28;20067;-69
2023/01/19 03:26:54;;;;;;;5.45;2.47;;;3.00;99.90;;;;;;5099930;28;20028;-70
2023/01/19 03:29:21;;;;;;;;;;;2.90;99.90;;;;;;5101585;28;20047;-69
2023/01/19 03:31:49;;;;;;;4.45;1.88;;;2.90;99.90;;;;;;5099002;27;19915;-70
2023/01/19 03:34:17;;;;;;;4.35;1.92;;;2.90;99.90;;;;;;5096178;28;20028;-70
2023/01/19 03:36:47;;;;;;;4.43;2.17;;;2.80;99.90;;;;;;5102055;28;20219;-69
2023/01/19 03:39:23;;;;;;;3.83;2.30;;;2.90;99.90;;;;;;5093433;28;20030;-69
2023/01/19 03:41:58;;;;;;;4.25;2.13;;;2.90;99.90;;;;;;5098221;28;20039;-70
2023/01/19 03:44:28;;;;;;;5.55;2.40;;;3.00;99.90;;;;;;5104999;28;20027;-69
2023/01/19 03:46:54;;;;;;;3.97;1.80;;;3.00;99.90;;;;;;5102592;28;20106;-69
2023/01/19 03:49:20;;;;;;;4.90;2.15;;;3.00;99.90;;;;;;5101931;28;20028;-69
2023/01/19 03:51:46;;;;;;;4.10;1.90;;;3.00;99.90;;;;;;5087483;28;20039;-70
2023/01/19 03:54:12;;;;;;;4.57;1.58;;;2.90;99.90;;;;;;5103477;28;20027;-70
2023/01/19 03:56:37;;;;;;;4.93;2.20;;;2.90;99.90;;;;;;5089090;28;20474;-69
2023/01/19 03:59:06;;;;;;;2.53;1.30;;;3.00;99.90;;;;;;5097314;28;20035;-69
2023/01/19 04:01:32;;;;;;;4.25;1.98;;;3.10;99.90;;;;;;5098225;28;20112;-70
2023/01/19 04:03:58;;;;;;;3.75;1.67;;;3.10;99.90;;;;;;5087169;28;20053;-70
2023/01/19 04:06:23;;;;;;;3.53;1.70;;;3.10;99.90;;;;;;5083972;28;20024;-69
2023/01/19 04:08:50;;;;;;;4.22;1.80;;;3.00;99.90;;;;;;5086789;28;20028;-69
2023/01/19 04:11:16;;;;;;;4.18;2.20;;;3.10;99.90;;;;;;5090139;28;20048;-70
2023/01/19 04:13:42;;;;;;;3.10;1.50;;;3.10;99.90;;;;;;5088238;28;20111;-69
2023/01/19 04:16:09;;;;;;;2.70;1.33;;;2.90;99.90;;;;;;5097437;28;20169;-69
2023/01/19 04:18:35;;;;;;;3.17;2.00;;;2.90;99.90;;;;;;5085770;28;20035;-69
2023/01/19 04:21:03;;;;;;;3.95;1.98;;;2.90;99.90;;;;;;5090343;28;20164;-69
2023/01/19 04:23:29;;;;;;;5.07;1.90;;;2.90;99.90;;;;;;5093151;28;20047;-69
2023/01/19 04:26:02;;;;;;;2.97;1.55;;;2.90;99.90;;;;;;5096605;28;20027;-70
2023/01/19 04:28:28;;;;;;;5.32;2.10;;;3.00;99.90;;;;;;5093830;28;20502;-69
2023/01/19 04:30:55;;;;;;;3.53;1.55;;;3.10;99.90;;;;;;5090100;28;20476;-69
2023/01/19 04:33:21;;;;;;;2.63;1.38;;;3.10;99.90;;;;;;5093317;28;20040;-69
2023/01/19 04:35:49;;;;;;;3.67;1.55;;;3.00;99.90;;;;;;5103086;28;20039;-69
2023/01/19 04:38:15;;;;;;;2.53;1.15;;;2.90;99.90;;;;;;5096650;28;20511;-69
2023/01/19 04:40:41;;;;;;;4.07;1.80;;;2.90;99.90;;;;;;5092602;27;20051;-69
2023/01/19 04:43:07;;;;;;;3.25;1.40;;;3.00;99.90;;;;;;5101183;28;20024;-69
2023/01/19 04:45:32;;;;;;;2.63;1.33;;;3.00;99.90;;;;;;5093175;28;20400;-70
2023/01/19 04:47:58;;;;;;;5.93;1.40;;;3.10;99.90;;;;;;5106362;27;20031;-70
2023/01/19 04:50:24;;;;;;;3.30;1.48;;;3.20;99.80;;;;;;5100389;27;20158;-69
2023/01/19 04:52:50;;;;;;;3.17;1.30;;;3.20;99.90;;;;;;5097398;28;20100;-70
2023/01/19 04:55:16;;;;;;;2.47;1.10;;;3.00;99.90;;;;;;5091412;28;20043;-69
2023/01/19 04:57:42;;;;;;;3.10;1.42;;;3.10;99.90;;;;;;5093410;28;20031;-70
2023/01/19 05:00:09;;;;;;;4.50;1.65;;;3.20;99.90;;;;;;5093137;27;20527;-69
2023/01/19 05:02:35;;;;;;;4.63;1.50;;;3.10;99.90;;;;;;5087235;27;20028;-69
2023/01/19 05:05:01;;;;;;;3.88;1.30;;;3.10;99.90;;;;;;5086018;28;20550;-69
2023/01/19 05:07:28;;;;;;;2.72;1.25;;;3.10;99.90;;;;;;5090702;28;20066;-69
2023/01/19 05:09:54;;;;;;;3.78;1.45;;;3.10;99.80;;;;;;5095225;28;20027;-69
2023/01/19 05:12:20;;;;;;;4.28;1.80;;;3.10;99.90;;;;;;5099232;28;20651;-70
2023/01/19 05:14:45;;;;;;;3.75;1.65;;;3.00;99.90;;;;;;5098953;27;20084;-70
2023/01/19 05:17:11;;;;;;;3.60;1.23;;;3.10;99.90;;;;;;5085890;28;20035;-70
2023/01/19 05:19:37;;;;;;;3.17;1.40;;;3.00;99.90;;;;;;5102400;28;20023;-69
2023/01/19 05:22:03;;;;;;;2.65;1.42;;;3.10;99.90;;;;;;5095780;28;20042;-70
2023/01/19 05:24:29;;;;;;;2.95;1.38;;;3.20;99.40;;;;;;5095025;28;20032;-70
2023/01/19 05:26:55;;;;;;;2.78;1.30;;;3.20;99.90;;;;;;5095866;28;20031;-69
2023/01/19 05:29:21;;;;;;;2.55;1.10;;;3.30;99.00;;;;;;5087595;28;20032;-69
2023/01/19 05:31:46;;;;;;;2.70;1.33;;;3.20;99.60;;;;;;5096724;28;20027;-68
2023/01/19 05:34:13;;;;;;;1.55;0.90;;;3.10;99.70;;;;;;5095555;28;20502;-68
2023/01/19 05:36:39;;;;;;;1.95;1.05;;;3.10;99.90;;;;;;5094953;28;20960;-68
2023/01/19 05:39:05;;;;;;;3.90;1.15;;;3.10;99.90;;;;;;5084997;28;20490;-68
2023/01/19 05:41:30;;;;;;;3.58;1.52;;;3.00;99.90;;;;;;5086569;28;20067;-69
2023/01/19 05:43:56;;;;;;;3.28;1.50;;;3.10;99.10;;;;;;5089801;28;20169;-69
2023/01/19 05:46:23;;;;;;;2.40;1.02;;;3.10;99.50;;;;;;5091936;27;20040;-68
2023/01/19 05:48:49;;;;;;;3.25;1.45;;;3.20;99.10;;;;;;5089746;28;20135;-69
2023/01/19 05:51:14;;;;;;;5.03;2.30;;;3.20;98.80;;;;;;5087685;27;20035;-69
2023/01/19 05:53:40;;;;;;;5.65;1.40;;;3.10;99.50;;;;;;5088875;28;20027;-69
2023/01/19 05:56:08;;;;;;;5.93;1.55;;;3.10;99.90;;;;;;5090521;28;20031;-68
2023/01/19 05:58:34;;;;;;;3.70;1.60;;;3.10;99.20;;;;;;5093879;28;20034;-68
2023/01/19 06:01:05;;;;;;;3.20;1.40;;;3.10;99.90;;;;;;5088283;28;20039;-68
2023/01/19 06:03:34;;;;;;;5.97;2.95;;;3.00;99.90;;;;;;5084591;28;20036;-69
2023/01/19 06:06:00;;;;;;;3.20;1.42;;;3.00;99.90;;;;;;5084851;27;20088;-68
2023/01/19 06:08:26;;;;;;;2.95;1.33;;;2.90;99.70;;;;;;5091216;28;20470;-68
2023/01/19 06:10:52;;;;;;;3.22;1.58;;;3.00;98.50;;;;;;5090712;27;20081;-69
2023/01/19 06:13:18;;;;;;;2.90;1.10;;;3.00;99.90;;;;;;5084266;28;20031;-68
2023/01/19 06:15:44;;;;;;;3.45;1.90;;;2.90;99.90;;;;;;5089447;28;20650;-69
2023/01/19 06:18:11;;;;;;;5.53;2.53;;;3.00;99.60;;;;;;5098899;28;20020;-68
2023/01/19 06:20:37;;;;;;;1.63;0.90;;;3.20;97.50;;;;;;5083396;28;20036;-68
2023/01/19 06:23:03;;;;;;;2.17;0.95;;;3.30;96.80;;;;;;5083022;28;20032;-68
2023/01/19 06:25:29;;;;;;;2.53;0.93;;;3.40;97.70;;;;;;5094114;28;20019;-70
2023/01/19 06:27:54;;;;;;;1.13;0.70;;;3.20;97.60;;;;;;5093557;28;20024;-70
2023/01/19 06:30:21;;;;;;;2.58;1.38;;;3.40;96.60;;;;;;5091216;28;20415;-70
2023/01/19 06:32:46;;;;;;;1.05;0.55;;;3.40;97.00;;;;;;5095426;28;20047;-70
2023/01/19 06:35:12;;;;;;;2.35;0.65;;;3.70;94.90;;;;;;5085768;28;20096;-70
2023/01/19 06:37:38;;;;;;;1.55;0.80;;;3.90;94.00;;;;;;5095528;28;20118;-69
2023/01/19 06:40:05;;;;;;;1.73;0.93;;;4.10;96.60;;;;;;5095352;28;20189;-69
2023/01/19 06:42:30;;;;;;;1.42;0.68;;;3.80;94.70;;;;;;5096137;28;20114;-70
2023/01/19 06:44:57;;;;;;;1.02;0.47;;;3.70;94.70;;;;;;5102077;28;20044;-70
2023/01/19 06:47:23;;;;;;;2.13;0.70;;;3.50;94.80;;;;;;5097162;28;20076;-70
2023/01/19 06:49:49;;;;;;;1.38;0.70;;;3.70;94.40;;;;;;5087023;28;20035;-71
2023/01/19 06:52:16;;;;;;;1.83;0.70;;;3.80;94.00;;;;;;5092584;28;20028;-71
2023/01/19 06:54:42;;;;;;;1.85;0.82;;;3.80;93.50;;;;;;5084390;28;20474;-71
2023/01/19 06:57:10;;;;;;;1.75;0.88;;;3.80;93.80;;;;;;5092464;28;20023;-71
2023/01/19 06:59:36;;;;;;;1.92;1.00;;;3.80;94.00;;;;;;5095688;28;20049;-71
2023/01/19 07:02:02;;;;;;;1.38;0.52;;;3.80;93.20;;;;;;5091062;28;20481;-72
2023/01/19 07:04:28;;;;;;;3.50;1.40;;;3.80;93.80;;;;;;5090683;28;20035;-71
2023/01/19 07:06:53;;;;;;;1.52;0.98;;;3.80;93.50;;;;;;5099627;28;20047;-71
2023/01/19 07:09:19;;;;;;;3.30;1.05;;;3.80;93.10;;;;;;5098329;28;20070;-71
2023/01/19 07:11:46;;;;;;;1.48;0.60;;;3.90;93.20;;;;;;5094380;28;20449;-71
2023/01/19 07:14:12;;;;;;;0.85;0.50;;;3.80;93.20;;;;;;5089580;28;20024;-71
2023/01/19 07:16:38;;;;;;;0.65;0.38;;;3.90;93.00;;;;;;5090288;28;20084;-71
2023/01/19 07:19:04;;;;;;;1.70;0.50;;;3.90;93.10;;;;;;5094030;28;20042;-71
2023/01/19 07:21:29;;;;;;;3.47;0.77;;;3.80;93.00;;;;;;5094820;28;20653;-70
2023/01/19 07:23:55;;;;;;;3.08;0.90;;;4.00;92.00;;;;;;5090376;28;21026;-71
2023/01/19 07:26:23;;;;;;;1.02;0.52;;;4.10;91.80;;;;;;5075091;28;20539;-71
2023/01/19 07:28:50;;;;;;;0.95;0.57;;;4.00;92.00;;;;;;5088506;28;20023;-70
2023/01/19 07:31:17;;;;;;;1.48;0.82;;;4.10;91.80;;;;;;5084396;28;20028;-70
2023/01/19 07:33:42;;;;;;;1.42;0.60;;;4.00;92.90;;;;;;5088208;28;20028;-70
2023/01/19 07:36:09;;;;;;;2.35;0.82;;;4.00;91.80;;;;;;5093323;28;20517;-70
2023/01/19 07:38:35;;;;;;;0.55;0.28;;;4.50;92.30;;;;;;5088387;28;20028;-70
2023/01/19 07:41:05;;;;;;;1.88;0.55;;;4.30;91.00;;;;;;5084319;28;20409;-70
2023/01/19 07:43:31;;;;;;;1.88;0.50;;;4.20;92.00;;;;;;5097604;28;20035;-70
2023/01/19 07:45:58;;;;;;;1.27;0.57;;;4.00;92.00;;;;;;5096711;28;20028;-70
2023/01/19 07:48:26;;;;;;;1.42;0.60;;;4.10;92.00;;;;;;5081128;28;20374;-70
2023/01/19 07:50:52;;;;;;;1.40;0.60;;;4.10;91.80;;;;;;5082252;28;20028;-70
2023/01/19 07:53:18;;;;;;;1.40;0.80;;;4.10;92.00;;;;;;5086631;28;20020;-70
2023/01/19 07:55:43;;;;;;;1.13;0.50;;;4.10;92.20;;;;;;5085580;28;20021;-70
2023/01/19 07:58:09;;;;;;;5.18;1.50;;;4.00;92.30;;;;;;5089118;28;20039;-71
2023/01/19 08:00:36;;;;;;;1.33;0.50;;;4.00;92.40;;;;;;5081428;28;20047;-70
2023/01/19 08:03:03;;;;;;;1.33;0.60;;;4.10;91.80;;;;;;5088513;28;20032;-70
2023/01/19 08:05:32;;;;;;;2.83;1.45;;;4.20;91.20;;;;;;5085632;28;20032;-70
2023/01/19 08:07:58;;;;;;;2.50;0.82;;;4.10;91.50;;;;;;5092666;28;20107;-70
2023/01/19 08:10:25;;;;;;;1.35;0.82;;;4.20;91.70;;;;;;5088414;27;20036;-71
2023/01/19 08:12:55;;;;;;;1.63;0.70;;;4.30;90.40;;;;;;5093566;28;20024;-70
2023/01/19 08:15:23;;;;;;;1.20;0.50;;;4.30;91.00;;;;;;5092750;27;20024;-70
2023/01/19 08:18:00;;;;;;;0.80;0.35;;;4.30;90.50;;;;;;5085276;28;20479;-70
2023/01/19 08:20:27;;;;;;;2.08;0.77;;;4.40;90.40;;;;;;5092948;28;20525;-70
2023/01/19 08:23:01;;;;;;;1.92;0.75;;;4.30;90.80;;;;;;5099192;28;20055;-70
2023/01/19 08:25:37;;;;;;;2.22;1.13;;;4.40;90.10;;;;;;5099687;28;20081;-70
2023/01/19 08:28:04;;;;;;;1.75;0.57;;;4.40;90.70;;;;;;5094644;28;20063;-70
2023/01/19 08:30:30;;;;;;;1.77;0.70;;;4.40;90.40;;;;;;5099328;28;20103;-70
2023/01/19 08:33:02;;;;;;;1.83;0.90;;;4.40;90.00;;;;;;5100262;28;20062;-70
2023/01/19 08:35:33;;;;;;;7.22;4.25;;;4.50;90.80;;;;;;5098027;28;20506;-70
2023/01/19 08:38:00;;;;;;;1.63;0.90;;;4.50;90.70;;;;;;5084654;28;20028;-70
2023/01/19 08:40:34;;;;;;;2.78;0.70;;;4.60;90.30;;;;;;5086179;28;20039;-70
2023/01/19 08:43:06;;;;;;;1.08;0.77;;;4.60;90.10;;;;;;5094516;28;20028;-70
2023/01/19 08:45:36;;;;;;;2.75;1.42;;;4.70;91.10;;;;;;5088374;28;20020;-71
2023/01/19 08:48:05;;;;;;;2.00;0.95;;;4.60;90.30;;;;;;5108854;28;20031;-70
2023/01/19 08:50:31;;;;;;;8.85;5.43;;;4.60;90.70;;;;;;5089508;28;20076;-70
2023/01/19 08:53:05;;;;;;;2.33;1.00;;;4.60;90.70;;;;;;5088980;27;20028;-71
2023/01/19 08:55:32;;;;;;;5.32;3.20;;;4.60;90.70;;;;;;5091032;28;20551;-71
2023/01/19 08:57:58;;;;;;;2.40;1.10;;;4.60;90.50;;;;;;5101615;28;20374;-70
2023/01/19 09:00:26;;;;;;;1.48;1.00;;;4.60;89.70;;;;;;5102196;27;20040;-70
2023/01/19 09:02:52;;;;;;;1.60;0.90;;;4.50;90.50;;;;;;5102189;28;20023;-71
2023/01/19 09:05:17;;;;;;;1.40;0.65;;;4.50;90.00;;;;;;5087499;28;20028;-70
2023/01/19 09:07:45;;;;;;;0.93;0.60;;;4.50;89.10;;;;;;5094492;27;20028;-70
2023/01/19 09:10:11;;;;;;;2.13;0.57;;;4.50;88.30;;;;;;5098706;28;20062;-71
2023/01/19 09:12:37;;;;;;;2.65;1.63;;;4.60;88.60;;;;;;5101764;28;20150;-70
2023/01/19 09:15:03;;;;;;;3.58;1.00;;;4.60;90.00;;;;;;5107249;28;20666;-70
2023/01/19 09:17:29;;;;;;;2.38;1.27;;;4.50;90.40;;;;;;5091353;28;20062;-70
2023/01/19 09:19:55;;;;;;;2.53;0.98;;;4.50;90.90;;;;;;5094804;28;20036;-70
2023/01/19 09:22:20;;;;;;;2.50;1.15;;;4.40;91.60;;;;;;5090259;28;20107;-70
2023/01/19 09:24:46;;;;;;;1.50;0.80;;;4.40;90.20;;;;;;5097947;28;20111;-70
2023/01/19 09:27:12;;;;;;;1.83;0.77;;;4.40;90.80;;;;;;5099980;28;20036;-70
2023/01/19 09:29:37;;;;;;;1.50;0.70;;;4.40;89.60;;;;;;5087651;28;20016;-70
2023/01/19 09:32:03;;;;;;;0.75;0.50;;;4.50;89.40;;;;;;5093990;28;20845;-70
2023/01/19 09:34:30;;;;;;;2.40;1.00;;;4.50;89.70;;;;;;5087073;28;20069;-70
2023/01/19 09:36:56;;;;;;;2.45;0.90;;;4.50;88.60;;;;;;5094007;28;20062;-70
2023/01/19 09:39:21;;;;;;;1.48;0.77;;;4.50;88.70;;;;;;5085798;28;20545;-70
2023/01/19 09:42:17;;;;;;;2.17;0.75;;;4.50;89.50;;;;;;5095619;28;20120;-70
2023/01/19 09:44:46;;;;;;;4.28;0.77;;;4.50;88.90;;;;;;5054930;28;20031;-70
2023/01/19 09:47:22;;;;;;;1.08;0.43;;;4.50;88.70;;;;;;5111218;28;20028;-70
2023/01/19 09:49:58;;;;;;;1.98;0.68;;;4.50;90.10;;;;;;5095045;28;20028;-70
2023/01/19 09:52:24;;;;;;;1.00;0.45;;;4.50;89.00;;;;;;5089999;28;20020;-70
2023/01/19 09:54:55;;;;;;;3.17;1.35;;;4.50;89.20;;;;;;5090063;28;20034;-70
2023/01/19 09:57:23;;;;;;;1.95;0.70;;;4.50;89.30;;;;;;5090402;28;20042;-70
2023/01/19 09:59:50;;;;;;;0.90;0.70;;;4.50;87.50;;;;;;5090150;28;20062;-71
2023/01/19 10:02:18;;;;;;;1.83;0.80;;;4.70;92.40;;;;;;5089305;28;20028;-70
2023/01/19 10:04:53;;;;;;;1.60;0.73;;;4.80;88.30;;;;;;5090101;28;20077;-70
2023/01/19 10:07:54;;;;;;;2.70;1.05;;;4.70;88.70;;;;;;5100998;27;20031;-70
2023/01/19 10:10:31;;;;;;;1.98;0.68;;;4.70;88.40;;;;;;5016278;28;20046;-70
2023/01/19 10:12:57;;;;;;;6.32;2.97;;;4.70;88.50;;;;;;5099280;28;20062;-71
2023/01/19 10:15:43;;;;;;;1.77;0.82;;;4.70;89.90;;;;;;5108491;28;20422;-71
2023/01/19 10:18:17;;;;;;;2.80;1.30;;;4.70;89.90;;;;;;5109552;28;20031;-70
2023/01/19 10:21:10;;;;;;;2.33;0.93;;;4.70;86.70;;;;;;5109298;28;20062;-71
2023/01/19 10:24:05;;;;;;;1.92;0.80;;;4.70;90.10;;;;;;5109356;28;20386;-70
2023/01/19 10:26:44;;;;;;;2.20;0.98;;;4.70;90.20;;;;;;5109284;28;20023;-71
2023/01/19 10:29:41;;;;;;;2.40;0.80;;;4.80;88.10;;;;;;5109359;28;20038;-71
2023/01/19 10:32:24;;;;;;;2.28;0.85;;;4.80;89.10;;;;;;5108134;28;20104;-70
2023/01/19 10:34:51;;;;;;;2.35;0.80;;;4.80;90.90;;;;;;5107210;28;20034;-71
2023/01/19 10:37:16;;;;;;;1.50;0.70;;;4.70;90.50;;;;;;5103194;28;20489;-70
2023/01/19 10:39:44;;;;;;;3.58;1.13;;;4.60;90.80;;;;;;5088145;28;20020;-70
2023/01/19 10:42:14;;;;;;;2.42;1.10;;;4.60;90.60;;;;;;5088424;28;20036;-70
2023/01/19 10:44:40;;;;;;;2.88;1.10;;;4.60;91.30;;;;;;5084744;28;20040;-70
2023/01/19 10:47:17;;;;;;;2.22;0.80;;;4.60;92.20;;;;;;5088197;28;20097;-70
2023/01/19 10:49:43;;;;;;;0.90;0.57;;;4.50;91.10;;;;;;5089142;28;20024;-70
2023/01/19 10:52:24;;;;;;;3.72;1.60;;;4.50;92.10;;;;;;5099430;27;20032;-70
2023/01/19 10:54:50;;;;;;;1.63;0.80;;;4.60;91.40;;;;;;5093118;28;20045;-70
2023/01/19 10:57:29;;;;;;;1.83;0.95;;;4.60;90.80;;;;;;5099282;28;20043;-70
2023/01/19 10:59:55;;;;;;;2.60;0.85;;;4.70;91.30;;;;;;5096184;28;20031;-71
2023/01/19 11:02:28;;;;;;;1.83;0.80;;;4.70;90.70;;;;;;5081711;28;20031;-71
2023/01/19 11:04:56;;;;;;;2.58;0.93;;;4.80;90.20;;;;;;5088472;28;20068;-70
2023/01/19 11:07:24;;;;;;;2.63;0.90;;;4.90;90.70;;;;;;5083083;28;20032;-70
2023/01/19 11:10:16;;;;;;;3.55;1.20;;;5.00;90.80;;;;;;5098622;28;20036;-68
2023/01/19 11:12:43;;;;;;;1.58;0.90;;;5.20;91.10;;;;;;5089586;28;20080;-68
2023/01/19 11:15:19;;;;;;;1.13;0.60;;;5.20;89.80;;;;;;5092824;28;20619;-69
2023/01/19 11:17:47;;;;;;;1.13;0.70;;;5.30;88.90;;;;;;5085504;28;20107;-69
2023/01/19 11:20:32;;;;;;;3.22;1.42;;;5.20;88.00;;;;;;5090672;28;20566;-70
2023/01/19 11:23:29;;;;;;;3.50;1.13;;;5.20;88.80;;;;;;5087492;28;20032;-71
2023/01/19 11:26:01;;;;;;;1.50;0.77;;;5.20;89.20;;;;;;5080611;28;20043;-69
2023/01/19 11:28:42;;;;;;;1.63;0.82;;;5.20;89.80;;;;;;5102910;28;20485;-68
2023/01/19 11:31:13;;;;;;;2.72;1.27;;;5.20;89.40;;;;;;5084505;28;20055;-70
2023/01/19 11:33:47;;;;;;;6.45;3.08;;;5.10;89.60;;;;;;5090263;28;20024;-71
2023/01/19 11:36:22;;;;;;;27.00;10.63;;;5.10;89.70;;;;;;5090865;28;20046;-71
2023/01/19 11:38:56;;;;;;;8.68;4.15;;;5.10;90.40;;;;;;5085846;28;20032;-71
2023/01/19 11:41:22;;;;;;;;;;;5.00;90.40;;;;;;5084780;28;20036;-70
2023/01/19 11:43:51;;;;;;;1.77;0.93;;;4.90;91.00;;;;;;5090167;27;19907;-69
2023/01/19 11:46:17;;;;;;;3.13;0.90;;;4.90;89.10;;;;;;5096391;27;20031;-69
2023/01/19 11:49:00;;;;;;;3.88;1.10;;;5.00;88.80;;;;;;5100146;27;20042;-69
2023/01/19 11:51:38;;;;;;;4.88;1.45;;;5.00;89.90;;;;;;5105791;27;20035;-69
2023/01/19 11:54:23;;;;;;;3.10;1.20;;;5.00;90.90;;;;;;5098075;28;20541;-69
2023/01/19 11:56:51;;;;;;;2.88;1.83;;;5.00;91.40;;;;;;5105020;27;20032;-69
2023/01/19 11:59:18;;;;;;;4.30;1.10;;;5.00;90.90;;;;;;5096112;28;20084;-69
2023/01/19 12:01:53;;;;;;;1.90;1.02;;;5.10;92.00;;;;;;5090413;27;20104;-69
2023/01/19 12:04:26;;;;;;;1.67;0.80;;;5.00;90.00;;;;;;5103305;27;20354;-69
2023/01/19 12:06:55;;;;;;;3.80;1.90;;;5.00;90.80;;;;;;5099534;27;20041;-70
2023/01/19 12:09:32;;;;;;;4.07;1.00;;;5.00;91.60;;;;;;5101284;27;20030;-71
2023/01/19 12:12:05;;;;;;;2.28;1.00;;;5.00;92.60;;;;;;5091068;27;20131;-71
2023/01/19 12:14:49;;;;;;;2.38;0.93;;;5.00;90.70;;;;;;5095498;28;20405;-69
2023/01/19 12:17:32;;;;;;;1.75;0.85;;;5.10;90.70;;;;;;5094754;28;20028;-69
2023/01/19 12:20:07;;;;;;;2.45;0.90;;;5.20;90.30;;;;;;5097556;27;20061;-69
2023/01/19 12:22:35;;;;;;;;;;;5.20;87.60;;;;;;5088310;28;20044;-69
2023/01/19 12:25:09;;;;;;;2.45;0.90;;;5.10;89.30;;;;;;5097032;28;19968;-68
2023/01/19 12:27:39;;;;;;;1.83;0.70;;;5.10;87.30;;;;;;5098950;28;20501;-69
2023/01/19 12:30:15;;;;;;;2.13;1.10;;;5.20;89.20;;;;;;5097671;28;20023;-69
2023/01/19 12:32:41;;;;;;;1.85;0.75;;;5.20;89.90;;;;;;5093830;28;20123;-69
2023/01/19 12:35:45;;;;;;;2.03;0.85;;;5.10;88.60;;;;;;5094228;28;20059;-69
2023/01/19 12:38:29;;;;;;;2.13;1.15;;;5.20;90.00;;;;;;5091698;28;20031;-68
2023/01/19 12:41:15;;;;;;;2.22;0.93;;;5.10;90.70;;;;;;5101584;28;20035;-69
2023/01/19 12:43:40;;;;;;;1.25;0.60;;;5.10;90.20;;;;;;5096373;28;20028;-69
2023/01/19 12:46:27;;;;;;;4.07;0.98;;;5.10;86.30;;;;;;5097049;27;20032;-69
2023/01/19 12:48:53;;;;;;;1.92;0.80;;;5.20;88.50;;;;;;5105707;28;20073;-69
2023/01/19 12:51:24;;;;;;;0.98;0.50;;;5.10;86.60;;;;;;5096435;28;20117;-69
2023/01/19 12:53:53;;;;;;;3.38;0.95;;;5.10;86.20;;;;;;5097159;27;20027;-69
2023/01/19 12:56:29;;;;;;;2.03;0.80;;;5.20;87.50;;;;;;5089329;28;20028;-69
2023/01/19 12:58:56;;;;;;;2.35;0.93;;;5.20;88.00;;;;;;5098150;28;20066;-69
2023/01/19 13:01:23;;;;;;;2.45;1.10;;;5.20;89.50;;;;;;5093261;28;20051;-69
2023/01/19 13:04:07;;;;;;;2.03;0.90;;;4.90;89.80;;;;;;5094439;28;20024;-69
2023/01/19 13:06:48;;;;;;;4.05;1.02;;;4.90;87.90;;;;;;5088923;28;20035;-69
2023/01/19 13:09:32;;;;;;;1.60;0.80;;;4.90;87.20;;;;;;5084018;28;20188;-70
2023/01/19 13:12:13;;;;;;;1.98;1.08;;;4.80;88.40;;;;;;5083240;28;20032;-70
2023/01/19 13:14:40;;;;;;;2.00;0.93;;;4.80;89.20;;;;;;5105557;28;20023;-70
2023/01/19 13:17:25;;;;;;;1.10;0.80;;;4.90;90.20;;;;;;5105078;28;20527;-70
2023/01/19 13:20:04;;;;;;;7.68;1.00;;;4.80;90.40;;;;;;5095698;28;20047;-70